createdAt,value
2023-01-10T00:01:43.166Z,100109.19
2023-01-10T00:04:11.144Z,100113.16
2023-01-10T00:06:38.946Z,100111.53
2023-01-10T00:09:06.716Z,100129.66
2023-01-10T00:11:52.115Z,100114.66
2023-01-10T00:14:20.026Z,100106.03
2023-01-10T00:16:49.203Z,100098.84
2023-01-10T00:19:16.985Z,100101.16
2023-01-10T00:21:44.693Z,100109.56
2023-01-10T00:24:19.782Z,100110.47
2023-01-10T00:26:51.860Z,100121.75
2023-01-10T00:29:20.677Z,100116.97
2023-01-10T00:31:50.212Z,100122.22
2023-01-10T00:34:18.348Z,100138.47
2023-01-10T00:36:47.815Z,100139.47
2023-01-10T00:39:16.211Z,100150.81
2023-01-10T00:42:01.450Z,100147.44
2023-01-10T00:44:29.182Z,100152.72
2023-01-10T00:46:58.289Z,100159.91
2023-01-10T00:49:25.984Z,100163.81
2023-01-10T00:51:57.993Z,100168.88
2023-01-10T00:54:25.821Z,100180.69
2023-01-10T00:56:53.519Z,100177.19
2023-01-10T00:59:21.299Z,100190.41
2023-01-10T01:01:49.254Z,100194.34
2023-01-10T01:04:18.423Z,100200.22
2023-01-10T01:06:47.664Z,100199.19
2023-01-10T01:09:15.857Z,100203.38
2023-01-10T01:11:43.986Z,100197.63
2023-01-10T01:14:11.751Z,100217.78
2023-01-10T01:16:39.440Z,100232.16
2023-01-10T01:19:07.176Z,100227.69
2023-01-10T01:21:36.229Z,100242.69
2023-01-10T01:24:04.107Z,100251.63
2023-01-10T01:26:31.992Z,100257.88
2023-01-10T01:28:59.781Z,100262.97
2023-01-10T01:31:27.680Z,100261.63
2023-01-10T01:33:55.630Z,100276.91
2023-01-10T01:36:23.347Z,100276.84
2023-01-10T01:38:52.440Z,100274.34
2023-01-10T01:41:37.803Z,100302.25
2023-01-10T01:44:07.691Z,100296.50
2023-01-10T01:46:38.084Z,100298.00
2023-01-10T01:49:13.073Z,100320.69
2023-01-10T01:51:40.924Z,100320.50
2023-01-10T01:54:13.022Z,100332.53
2023-01-10T01:56:44.651Z,100346.09
2023-01-10T01:59:15.110Z,100343.47
2023-01-10T02:01:44.631Z,100332.88
2023-01-10T02:04:18.091Z,100333.50
2023-01-10T02:06:47.096Z,100328.63
2023-01-10T02:09:21.967Z,100343.97
2023-01-10T02:11:50.029Z,100351.09
2023-01-10T02:14:18.646Z,100357.53
2023-01-10T02:16:46.543Z,100366.19
2023-01-10T02:19:25.138Z,100379.13
2023-01-10T02:22:41.772Z,100373.59
2023-01-10T02:25:35.516Z,100377.78
2023-01-10T02:28:26.277Z,100374.25
2023-01-10T02:31:20.755Z,100377.59
2023-01-10T02:34:00.268Z,100367.88
2023-01-10T02:36:39.455Z,100378.00
2023-01-10T02:39:17.326Z,100373.16
2023-01-10T02:41:52.451Z,100382.13
2023-01-10T02:44:25.655Z,100384.91
2023-01-10T02:46:53.518Z,100384.63
2023-01-10T02:49:22.658Z,100383.94
2023-01-10T02:51:50.377Z,100389.72
2023-01-10T02:54:20.954Z,100405.38
2023-01-10T02:57:26.745Z,100401.66
2023-01-10T03:00:20.239Z,100420.19
2023-01-10T03:03:14.187Z,100414.84
2023-01-10T03:06:07.705Z,100421.13
2023-01-10T03:08:40.578Z,100432.41
2023-01-10T03:11:10.252Z,100438.53
2023-01-10T03:13:44.404Z,100439.91
2023-01-10T03:16:16.855Z,100456.66
2023-01-10T03:18:49.261Z,100463.06
2023-01-10T03:21:21.368Z,100464.69
2023-01-10T03:23:51.857Z,100465.69
2023-01-10T03:26:31.230Z,100459.88
2023-01-10T03:29:05.090Z,100473.00
2023-01-10T03:31:40.188Z,100473.50
2023-01-10T03:34:08.193Z,100463.75
2023-01-10T03:36:46.714Z,100470.81
2023-01-10T03:39:20.337Z,100474.16
2023-01-10T03:41:54.262Z,100474.22
2023-01-10T03:44:46.234Z,100480.59
2023-01-10T03:47:20.313Z,100478.44
2023-01-10T03:49:51.545Z,100491.09
2023-01-10T03:52:21.804Z,100497.97
2023-01-10T03:54:49.663Z,100504.78
2023-01-10T03:57:23.847Z,100510.41
2023-01-10T03:59:55.101Z,100503.88
2023-01-10T04:02:23.149Z,100516.69
2023-01-10T04:04:51.192Z,100517.66
2023-01-10T04:07:20.392Z,100526.00
2023-01-10T04:09:48.236Z,100539.63
2023-01-10T04:12:16.276Z,100528.34
2023-01-10T04:14:45.449Z,100527.25
2023-01-10T04:17:13.477Z,100536.84
2023-01-10T04:19:41.864Z,100551.69
2023-01-10T04:22:09.699Z,100556.06
2023-01-10T04:24:39.494Z,100564.22
2023-01-10T04:27:07.649Z,100571.13
2023-01-10T04:29:35.469Z,100584.50
2023-01-10T04:32:03.218Z,100588.13
2023-01-10T04:34:31.073Z,100600.09
2023-01-10T04:36:58.850Z,100595.94
2023-01-10T04:39:26.781Z,100587.50
2023-01-10T04:41:56.051Z,100606.72
2023-01-10T04:44:23.982Z,100625.47
2023-01-10T04:46:51.968Z,100615.16
2023-01-10T04:49:19.965Z,100613.38
2023-01-10T04:51:47.982Z,100610.41
2023-01-10T04:54:16.175Z,100625.88
2023-01-10T04:56:44.226Z,100619.69
2023-01-10T04:59:13.358Z,100620.59
2023-01-10T05:01:41.408Z,100634.22
2023-01-10T05:04:10.091Z,100650.34
2023-01-10T05:06:40.062Z,100645.84
2023-01-10T05:09:08.060Z,100640.44
2023-01-10T05:11:37.841Z,100645.53
2023-01-10T05:14:05.875Z,100642.63
2023-01-10T05:16:35.308Z,100654.19
2023-01-10T05:19:03.402Z,100657.00
2023-01-10T05:21:31.452Z,100656.34
2023-01-10T05:23:59.263Z,100662.66
2023-01-10T05:26:27.089Z,100668.81
2023-01-10T05:28:54.918Z,100683.69
2023-01-10T05:31:23.113Z,100679.28
2023-01-10T05:33:53.329Z,100688.97
2023-01-10T05:36:21.378Z,100698.63
2023-01-10T05:38:49.297Z,100690.63
2023-01-10T05:41:17.116Z,100700.44
2023-01-10T05:43:44.859Z,100696.09
2023-01-10T05:46:12.819Z,100703.00
2023-01-10T05:48:40.660Z,100711.72
2023-01-10T05:51:09.963Z,100712.56
2023-01-10T05:53:37.829Z,100724.13
2023-01-10T05:56:07.715Z,100737.16
2023-01-10T05:58:35.819Z,100747.88
2023-01-10T06:01:04.311Z,100754.78
2023-01-10T06:03:32.863Z,100759.16
2023-01-10T06:06:01.150Z,100761.72
2023-01-10T06:08:31.429Z,100770.59
2023-01-10T06:11:00.356Z,100779.50
2023-01-10T06:13:29.372Z,100775.19
2023-01-10T06:15:59.448Z,100772.47
2023-01-10T06:18:28.765Z,100783.16
2023-01-10T06:20:57.866Z,100784.84
2023-01-10T06:23:26.423Z,100794.66
2023-01-10T06:25:56.213Z,100792.91
2023-01-10T06:28:30.739Z,100790.50
2023-01-10T06:30:59.515Z,100794.78
2023-01-10T06:33:30.840Z,100802.66
2023-01-10T06:35:58.878Z,100802.69
2023-01-10T06:38:26.797Z,100807.06
2023-01-10T06:40:56.125Z,100809.63
2023-01-10T06:43:25.831Z,100821.97
2023-01-10T06:45:54.046Z,100811.56
2023-01-10T06:48:22.314Z,100823.06
2023-01-10T06:50:51.419Z,100836.00
2023-01-10T06:53:19.411Z,100844.72
2023-01-10T06:55:50.615Z,100842.03
2023-01-10T06:58:19.815Z,100845.13
2023-01-10T07:00:48.041Z,100850.63
2023-01-10T07:03:16.097Z,100847.97
2023-01-10T07:05:44.171Z,100851.50
2023-01-10T07:08:12.080Z,100857.59
2023-01-10T07:10:41.696Z,100861.25
2023-01-10T07:13:09.839Z,100866.34
2023-01-10T07:15:39.076Z,100859.91
2023-01-10T07:18:06.869Z,100874.47
2023-01-10T07:20:34.758Z,100868.81
2023-01-10T07:23:02.832Z,100876.75
2023-01-10T07:25:31.188Z,100882.16
2023-01-10T07:27:59.354Z,100884.94
2023-01-10T07:30:27.331Z,100890.19
2023-01-10T07:32:57.710Z,100889.38
2023-01-10T07:35:27.642Z,100897.19
2023-01-10T07:37:55.445Z,100904.28
2023-01-10T07:40:23.407Z,100897.13
2023-01-10T07:42:51.380Z,100905.69
2023-01-10T07:45:19.225Z,100914.41
2023-01-10T07:47:46.929Z,100924.88
2023-01-10T07:50:18.110Z,100919.75
2023-01-10T07:52:46.072Z,100909.03
2023-01-10T07:55:13.957Z,100911.91
2023-01-10T07:57:41.861Z,100912.63
2023-01-10T08:00:12.198Z,100910.06
2023-01-10T08:02:40.057Z,100910.97
2023-01-10T08:05:08.522Z,100921.16
2023-01-10T08:07:38.411Z,100924.66
2023-01-10T08:10:07.464Z,100931.88
2023-01-10T08:12:35.448Z,100940.00
2023-01-10T08:15:03.292Z,100929.94
2023-01-10T08:17:34.421Z,100949.44
2023-01-10T08:20:02.693Z,100949.25
2023-01-10T08:22:30.474Z,100965.34
2023-01-10T08:24:59.668Z,100961.69
2023-01-10T08:27:27.449Z,100949.31
2023-01-10T08:29:55.216Z,100955.53
2023-01-10T08:32:23.544Z,100962.41
2023-01-10T08:34:51.428Z,100979.50
2023-01-10T08:37:19.230Z,100977.59
2023-01-10T08:39:47.063Z,100982.97
2023-01-10T08:42:18.672Z,100990.72
2023-01-10T08:44:46.902Z,100991.66
2023-01-10T08:47:15.111Z,100977.59
2023-01-10T08:49:43.085Z,100973.84
2023-01-10T08:52:11.090Z,100962.34
2023-01-10T08:54:39.179Z,100962.38
2023-01-10T08:57:07.034Z,100973.75
2023-01-10T08:59:36.700Z,100972.72
2023-01-10T09:02:05.173Z,100968.22
2023-01-10T09:04:33.276Z,100987.56
2023-01-10T09:07:01.283Z,100979.00
2023-01-10T09:09:29.301Z,100996.13
2023-01-10T09:11:57.540Z,100996.09
2023-01-10T09:14:25.744Z,100994.16
2023-01-10T09:16:54.967Z,101010.84
2023-01-10T09:19:22.855Z,101011.16
2023-01-10T09:21:50.705Z,101012.91
2023-01-10T09:24:18.504Z,101018.88
2023-01-10T09:26:46.390Z,101028.00
2023-01-10T09:29:14.403Z,101031.75
2023-01-10T09:31:42.392Z,101032.97
2023-01-10T09:34:14.986Z,101044.19
2023-01-10T09:36:42.953Z,101044.97
2023-01-10T09:39:10.909Z,101045.84
2023-01-10T09:41:57.210Z,101051.97
2023-01-10T09:44:38.498Z,101049.53
2023-01-10T09:47:22.379Z,101047.91
2023-01-10T09:50:01.218Z,101061.59
2023-01-10T09:52:33.969Z,101058.81
2023-01-10T09:55:17.897Z,101066.53
2023-01-10T09:57:46.605Z,101077.91
2023-01-10T10:00:21.157Z,101088.00
2023-01-10T10:02:53.565Z,101083.41
2023-01-10T10:05:24.544Z,101083.56
2023-01-10T10:07:56.115Z,101083.78
2023-01-10T10:10:27.170Z,101078.63
2023-01-10T10:13:14.005Z,101071.88
2023-01-10T10:15:50.767Z,101075.94
2023-01-10T10:18:33.600Z,101064.13
2023-01-10T10:21:09.543Z,101072.28
2023-01-10T10:24:11.116Z,101070.63
2023-01-10T10:26:47.816Z,101069.44
2023-01-10T10:29:31.593Z,101065.91
2023-01-10T10:32:11.737Z,101067.97
2023-01-10T10:34:43.035Z,101065.19
2023-01-10T10:37:21.363Z,101082.06
2023-01-10T10:39:53.383Z,101077.63
2023-01-10T10:42:21.356Z,101074.59
2023-01-10T10:44:56.347Z,101082.53
2023-01-10T10:47:29.078Z,101090.94
2023-01-10T10:50:06.997Z,101096.34
2023-01-10T10:52:37.700Z,101096.66
2023-01-10T10:55:08.115Z,101110.84
2023-01-10T10:57:43.450Z,101099.28
2023-01-10T11:00:22.687Z,101095.34
2023-01-10T11:02:54.362Z,101098.00
2023-01-10T11:05:30.576Z,101101.31
2023-01-10T11:08:04.361Z,101097.13
2023-01-10T11:10:36.806Z,101097.25
2023-01-10T11:13:07.187Z,101103.56
2023-01-10T11:15:43.498Z,101110.53
2023-01-10T11:18:16.763Z,101108.47
2023-01-10T11:20:50.291Z,101104.94
2023-01-10T11:23:41.642Z,101106.81
2023-01-10T11:26:11.612Z,101104.91
2023-01-10T11:28:39.779Z,101116.78
2023-01-10T11:31:08.208Z,101119.75
2023-01-10T11:33:37.000Z,101112.53
2023-01-10T11:36:07.415Z,101112.56
2023-01-10T11:38:37.192Z,101111.81
2023-01-10T11:41:06.629Z,101108.78
2023-01-10T11:43:36.776Z,101092.25
2023-01-10T11:46:13.452Z,101099.44
2023-01-10T11:49:04.964Z,101100.31
2023-01-10T11:51:38.102Z,101102.59
2023-01-10T11:54:12.467Z,101097.63
2023-01-10T11:56:41.660Z,101098.13
2023-01-10T11:59:12.803Z,101100.88
2023-01-10T12:01:44.407Z,101102.38
2023-01-10T12:04:16.870Z,101104.13
2023-01-10T12:06:46.860Z,101099.50
2023-01-10T12:09:36.656Z,101101.75
2023-01-10T12:12:07.275Z,101102.41
2023-01-10T12:14:36.276Z,101111.97
2023-01-10T12:17:06.022Z,101102.75
2023-01-10T12:19:34.820Z,101100.50
2023-01-10T12:22:08.928Z,101099.75
2023-01-10T12:24:44.243Z,101105.81
2023-01-10T12:27:15.627Z,101103.38
2023-01-10T12:29:48.917Z,101099.91
2023-01-10T12:32:22.712Z,101108.00
2023-01-10T12:35:00.911Z,101106.28
2023-01-10T12:37:36.870Z,101095.91
2023-01-10T12:40:16.743Z,101103.97
2023-01-10T12:43:12.925Z,101106.19
2023-01-10T12:45:45.242Z,101104.16
2023-01-10T12:48:23.705Z,101113.41
2023-01-10T12:50:55.677Z,101115.16
2023-01-10T12:53:31.398Z,101109.97
2023-01-10T12:56:05.168Z,101119.00
2023-01-10T12:58:43.141Z,101109.88
2023-01-10T13:01:14.915Z,101118.75
2023-01-10T13:03:44.613Z,101118.59
2023-01-10T13:06:22.508Z,101106.47
2023-01-10T13:08:52.138Z,101113.78
2023-01-10T13:11:26.195Z,101122.41
2023-01-10T13:14:00.637Z,101115.06
2023-01-10T13:16:36.383Z,101118.53
2023-01-10T13:19:23.027Z,101119.81
2023-01-10T13:21:52.367Z,101116.53
2023-01-10T13:24:22.618Z,101111.56
2023-01-10T13:26:54.297Z,101111.53
2023-01-10T13:29:24.924Z,101111.41
2023-01-10T13:31:57.625Z,101114.56
2023-01-10T13:34:33.007Z,101100.47
2023-01-10T13:37:04.090Z,101097.56
2023-01-10T13:39:35.886Z,101089.69
2023-01-10T13:42:44.958Z,101090.84
2023-01-10T13:45:24.054Z,101096.81
2023-01-10T13:48:06.511Z,101088.13
2023-01-10T13:50:58.213Z,101087.44
2023-01-10T13:53:59.898Z,101095.53
2023-01-10T13:56:39.289Z,101096.34
2023-01-10T13:59:31.741Z,101104.38
2023-01-10T14:02:19.423Z,101109.72
2023-01-10T14:04:50.597Z,101106.31
2023-01-10T14:07:28.303Z,101099.28
2023-01-10T14:10:04.556Z,101102.84
2023-01-10T14:12:36.708Z,101103.44
2023-01-10T14:15:22.832Z,101108.22
2023-01-10T14:18:01.983Z,101101.41
2023-01-10T14:20:35.067Z,101099.38
2023-01-10T14:23:06.658Z,101100.38
2023-01-10T14:25:36.552Z,101096.13
2023-01-10T14:28:06.600Z,101096.78
2023-01-10T14:30:40.236Z,101084.19
2023-01-10T14:33:14.617Z,101089.53
2023-01-10T14:35:46.067Z,101072.78
2023-01-10T14:38:20.178Z,101072.91
2023-01-10T14:40:53.791Z,101071.81
2023-01-10T14:43:26.652Z,101072.97
2023-01-10T14:46:02.047Z,101070.91
2023-01-10T14:48:32.111Z,101071.25
2023-01-10T14:51:25.575Z,101069.69
2023-01-10T14:53:57.975Z,101070.59
2023-01-10T14:56:28.163Z,101069.56
2023-01-10T14:58:56.256Z,101069.38
2023-01-10T15:01:28.984Z,101069.50
2023-01-10T15:03:58.585Z,101064.66
2023-01-10T15:06:26.967Z,101061.78
2023-01-10T15:08:59.924Z,101066.13
2023-01-10T15:11:30.227Z,101059.28
2023-01-10T15:14:04.845Z,101054.31
2023-01-10T15:16:37.174Z,101055.09
2023-01-10T15:19:05.764Z,101051.66
2023-01-10T15:21:33.915Z,101055.06
2023-01-10T15:24:01.887Z,101054.13
2023-01-10T15:26:34.247Z,101061.25
2023-01-10T15:29:13.650Z,101062.03
2023-01-10T15:31:44.748Z,101052.41
2023-01-10T15:34:19.073Z,101060.34
2023-01-10T15:36:51.088Z,101063.13
2023-01-10T15:39:22.300Z,101061.59
2023-01-10T15:41:56.107Z,101052.78
2023-01-10T15:44:34.978Z,101048.47
2023-01-10T15:47:04.576Z,101043.69
2023-01-10T15:49:33.184Z,101036.75
2023-01-10T15:52:01.378Z,101034.09
2023-01-10T15:54:31.642Z,101037.81
2023-01-10T15:57:07.506Z,101040.44
2023-01-10T15:59:39.438Z,101035.25
2023-01-10T16:02:22.362Z,101030.75
2023-01-10T16:04:52.113Z,101024.56
2023-01-10T16:07:25.084Z,101018.16
2023-01-10T16:09:58.190Z,101020.22
2023-01-10T16:12:46.381Z,101011.41
2023-01-10T16:15:20.220Z,101011.13
2023-01-10T16:17:50.959Z,101011.34
2023-01-10T16:20:21.863Z,101005.22
2023-01-10T16:22:51.430Z,101000.75
2023-01-10T16:25:25.695Z,101001.59
2023-01-10T16:27:56.185Z,100992.84
2023-01-10T16:30:25.857Z,101002.50
2023-01-10T16:32:57.265Z,100991.22
2023-01-10T16:35:26.171Z,100999.09
2023-01-10T16:37:56.518Z,100996.53
2023-01-10T16:40:27.947Z,100997.16
2023-01-10T16:43:14.598Z,100991.13
2023-01-10T16:45:42.721Z,100988.56
2023-01-10T16:48:11.908Z,100990.38
2023-01-10T16:50:39.836Z,100987.63
2023-01-10T16:53:08.050Z,100983.84
2023-01-10T16:55:41.977Z,100976.97
2023-01-10T16:58:10.857Z,100965.72
2023-01-10T17:00:40.284Z,100961.28
2023-01-10T17:03:16.588Z,100957.00
2023-01-10T17:05:44.593Z,100954.28
2023-01-10T17:08:17.266Z,100942.78
2023-01-10T17:10:48.081Z,100939.59
2023-01-10T17:13:20.851Z,100947.25
2023-01-10T17:15:48.675Z,100940.28
2023-01-10T17:18:19.831Z,100933.09
2023-01-10T17:20:47.826Z,100934.03
2023-01-10T17:23:15.975Z,100929.56
2023-01-10T17:25:44.569Z,100923.34
2023-01-10T17:28:13.006Z,100921.56
2023-01-10T17:30:40.863Z,100916.34
2023-01-10T17:33:11.990Z,100922.72
2023-01-10T17:35:42.253Z,100911.00
2023-01-10T17:38:12.014Z,100906.75
2023-01-10T17:40:41.358Z,100904.81
2023-01-10T17:43:11.346Z,100898.72
2023-01-10T17:45:40.413Z,100909.25
2023-01-10T17:48:08.999Z,100905.88
2023-01-10T17:50:37.271Z,100902.88
2023-01-10T17:53:06.694Z,100906.66
2023-01-10T17:55:34.466Z,100900.72
2023-01-10T17:58:03.626Z,100898.28
2023-01-10T18:00:32.363Z,100889.13
2023-01-10T18:03:02.410Z,100890.91
2023-01-10T18:05:32.241Z,100885.50
2023-01-10T18:08:01.083Z,100884.00
2023-01-10T18:10:30.757Z,100876.69
2023-01-10T18:12:58.745Z,100871.59
2023-01-10T18:15:27.555Z,100873.31
2023-01-10T18:17:55.633Z,100869.66
2023-01-10T18:20:23.500Z,100869.59
2023-01-10T18:23:08.838Z,100865.38
2023-01-10T18:25:38.321Z,100857.25
2023-01-10T18:28:06.479Z,100853.84
2023-01-10T18:30:34.405Z,100858.97
2023-01-10T18:33:02.345Z,100854.53
2023-01-10T18:35:30.294Z,100848.44
2023-01-10T18:37:58.824Z,100852.03
2023-01-10T18:40:26.692Z,100853.84
2023-01-10T18:42:57.652Z,100854.53
2023-01-10T18:45:27.928Z,100846.53
2023-01-10T18:47:57.616Z,100848.34
2023-01-10T18:50:28.348Z,100850.84
2023-01-10T18:52:56.212Z,100847.19
2023-01-10T18:55:24.162Z,100838.63
2023-01-10T18:57:52.044Z,100842.19
2023-01-10T19:00:22.124Z,100846.44
2023-01-10T19:02:50.062Z,100856.84
2023-01-10T19:05:18.162Z,100850.78
2023-01-10T19:07:46.038Z,100855.03
2023-01-10T19:10:13.933Z,100850.69
2023-01-10T19:12:42.393Z,100855.13
2023-01-10T19:15:11.281Z,100849.56
2023-01-10T19:17:40.475Z,100845.84
2023-01-10T19:20:10.268Z,100841.19
2023-01-10T19:22:38.196Z,100849.00
2023-01-10T19:25:06.702Z,100843.78
2023-01-10T19:27:34.906Z,100844.75
2023-01-10T19:30:02.799Z,100844.59
2023-01-10T19:32:31.642Z,100834.75
2023-01-10T19:35:01.100Z,100828.94
2023-01-10T19:37:29.196Z,100818.13
2023-01-10T19:39:57.023Z,100804.16
2023-01-10T19:42:26.119Z,100810.44
2023-01-10T19:44:54.260Z,100809.59
2023-01-10T19:47:22.159Z,100801.47
2023-01-10T19:49:51.158Z,100790.97
2023-01-10T19:52:20.624Z,100788.22
2023-01-10T19:54:48.970Z,100785.63
2023-01-10T19:57:17.257Z,100756.88
2023-01-10T19:59:47.320Z,100756.91
2023-01-10T20:02:15.599Z,100735.59
2023-01-10T20:04:43.702Z,100741.44
2023-01-10T20:07:11.549Z,100748.78
2023-01-10T20:09:41.006Z,100730.56
2023-01-10T20:12:12.496Z,100719.47
2023-01-10T20:14:40.572Z,100724.53
2023-01-10T20:17:09.340Z,100713.81
2023-01-10T20:19:37.304Z,100711.09
2023-01-10T20:22:05.199Z,100701.59
2023-01-10T20:24:33.531Z,100693.72
2023-01-10T20:27:04.565Z,100684.09
2023-01-10T20:29:33.320Z,100683.19
2023-01-10T20:32:02.911Z,100679.56
2023-01-10T20:34:30.715Z,100670.53
2023-01-10T20:36:59.075Z,100676.03
2023-01-10T20:39:26.991Z,100676.22
2023-01-10T20:41:54.890Z,100657.50
2023-01-10T20:44:26.151Z,100661.94
2023-01-10T20:46:55.241Z,100654.91
2023-01-10T20:49:23.255Z,100656.81
2023-01-10T20:51:53.698Z,100644.38
2023-01-10T20:54:21.775Z,100635.88
2023-01-10T20:56:49.768Z,100621.81
2023-01-10T20:59:17.667Z,100618.91
2023-01-10T21:01:47.002Z,100597.16
2023-01-10T21:04:14.915Z,100598.88
2023-01-10T21:06:43.012Z,100586.78
2023-01-10T21:09:11.400Z,100579.69
2023-01-10T21:11:56.639Z,100575.28
2023-01-10T21:14:27.101Z,100572.69
2023-01-10T21:16:56.540Z,100564.13
2023-01-10T21:19:24.368Z,100559.63
2023-01-10T21:21:52.316Z,100550.94
2023-01-10T21:24:22.814Z,100552.09
2023-01-10T21:26:50.857Z,100541.44
2023-01-10T21:29:19.037Z,100533.47
2023-01-10T21:31:46.850Z,100526.13
2023-01-10T21:34:16.020Z,100527.38
2023-01-10T21:36:43.856Z,100523.16
2023-01-10T21:39:11.705Z,100516.88
2023-01-10T21:42:11.497Z,100510.13
2023-01-10T21:44:39.269Z,100524.06
2023-01-10T21:47:07.085Z,100517.88
2023-01-10T21:49:36.385Z,100520.44
2023-01-10T21:52:04.283Z,100514.09
2023-01-10T21:54:32.352Z,100518.38
2023-01-10T21:57:00.202Z,100506.19
2023-01-10T21:59:27.966Z,100506.97
2023-01-10T22:01:56.138Z,100507.81
2023-01-10T22:04:23.937Z,100506.06
2023-01-10T22:06:53.070Z,100493.59
2023-01-10T22:09:20.860Z,100507.63
2023-01-10T22:11:48.656Z,100496.19
2023-01-10T22:14:16.541Z,100484.38
2023-01-10T22:16:44.305Z,100484.53
2023-01-10T22:19:13.428Z,100485.56
2023-01-10T22:21:41.244Z,100491.44
2023-01-10T22:24:11.834Z,100486.91
2023-01-10T22:26:39.861Z,100494.34
2023-01-10T22:29:07.625Z,100494.97
2023-01-10T22:31:35.465Z,100488.81
2023-01-10T22:34:03.199Z,100491.03
2023-01-10T22:36:30.868Z,100482.94
2023-01-10T22:38:58.589Z,100487.88
2023-01-10T22:41:28.720Z,100476.72
2023-01-10T22:43:57.281Z,100486.00
2023-01-10T22:46:25.248Z,100487.03
2023-01-10T22:48:53.584Z,100460.28
2023-01-10T22:51:22.424Z,100467.00
2023-01-10T22:53:50.766Z,100455.78
2023-01-10T22:56:18.876Z,100457.44
2023-01-10T22:58:48.688Z,100453.06
2023-01-10T23:01:17.994Z,100448.38
2023-01-10T23:03:46.102Z,100447.13
2023-01-10T23:06:15.505Z,100444.34
2023-01-10T23:08:43.639Z,100440.97
2023-01-10T23:11:13.516Z,100423.72
2023-01-10T23:13:42.201Z,100423.19
2023-01-10T23:16:14.317Z,100418.28
2023-01-10T23:18:42.437Z,100422.53
2023-01-10T23:21:10.817Z,100407.94
2023-01-10T23:23:38.620Z,100415.56
2023-01-10T23:26:08.783Z,100414.72
2023-01-10T23:28:38.794Z,100407.13
2023-01-10T23:31:07.869Z,100403.69
2023-01-10T23:33:37.201Z,100397.47
2023-01-10T23:36:05.215Z,100402.94
2023-01-10T23:38:33.855Z,100395.31
2023-01-10T23:41:01.742Z,100382.81
2023-01-10T23:43:29.484Z,100378.16
2023-01-10T23:45:57.452Z,100364.81
2023-01-10T23:48:25.409Z,100374.84
2023-01-10T23:50:54.539Z,100367.31
2023-01-10T23:53:22.272Z,100369.78
2023-01-10T23:55:50.049Z,100363.47
2023-01-10T23:58:18.283Z,100362.84
